Tropical Cyclones
[Index]
Season 2019-2020 Tropical Cyclone JERUTO Track Map
Season 2019-2020 Summaries (Operational Data): [AU] [SIO] [SPAC] [SH]
<<- Previous TC | 2019-2020 Season | Next TC ->>

click for intensity scale information  Lat/long Grid: Show Hide

 Date Labels: Show Hide

Operational Tropical Cyclone Data

Name: JERUTO
Number: 2026

10 Apr 2020 18:00 UTC to 18 Apr 2020 12:00 UTC

    date/time    lat    long     hPa   cat  kts
2020-04-10 18   10.1    92.5    1010         15          
2020-04-11 00   10.1    92.3    1010         15          
2020-04-11 06   10.1    92.1    1010         15          
2020-04-11 12   10.1    91.8    1007         20          
2020-04-11 18   10.0    91.3    1007         20          
2020-04-12 00   10.1    90.8    1007         20          
2020-04-12 06   10.5    90.7    1007         20          
2020-04-12 12   11.1    92.1    1007         20          
2020-04-12 18   10.5    91.4    1004         25          
2020-04-13 00   11.0    90.5    1004         25          
2020-04-13 06   11.6    90.6    1007         30          
2020-04-13 12   12.5    90.5    1006         30          
2020-04-13 18   12.9    89.5    1004         25          
2020-04-14 00   13.5    88.6    1006         25          
2020-04-14 06   13.9    87.9    1006         25          
2020-04-14 12   14.3    87.0    1006         30          
2020-04-14 18   14.7    86.4    1003    1    40          
2020-04-15 00   15.4    85.3    1002    1    40          
2020-04-15 06   15.8    84.3    1002    1    40          
2020-04-15 12   16.0    83.8    1001    1    40          
2020-04-15 18   16.2    83.1    1004    1    35          
2020-04-16 00   16.8    82.4    1004         30          
2020-04-16 06   17.0    82.0    1000         30          
2020-04-16 12   17.5    80.7    1000         30          
2020-04-16 18   17.1    80.0    1000         30          
2020-04-17 00   17.7    79.8    1000         30          
2020-04-17 06   18.0    78.9    1000         30          
2020-04-17 12   17.6    78.8    1000         30          
2020-04-17 18   16.5    78.4    1008         30          
2020-04-18 00   16.1    78.2    1004         25          
2020-04-18 06   15.6    77.8    1004         25          
2020-04-18 12   16.0    76.5    1004         25          
Winds are 10-min average.

Tropical cyclone tracks developed by Michael Bath using operational warnings and advisories and Google Maps.


Document: tropical_cyclone_jeruto.htm
Updated: 17 June 2020
[Australian Severe Weather index] [Copyright Notice] [Email Contacts] [Search This Site] [Privacy Policy]


Main Index Home Page Stock Weather Photos Extreme Storms Discussion Storm News and Storm Chasing Reports Tropical Cyclones / Hurricanes / Typhoons Weather Data and Links Wild Fires / Bushfires Weather Observation Techniques Weather Picture Catalogue Tornado Pictures and Reports Stock Video Footage and DVDs for sale